createdAt,value
2023-12-17T00:01:13.036Z,7.57
2023-12-17T00:03:41.279Z,7.05
2023-12-17T00:06:09.185Z,7.65
2023-12-17T00:08:37.014Z,8.88
2023-12-17T00:11:04.870Z,8.07
2023-12-17T00:13:33.246Z,7.90
2023-12-17T00:16:03.385Z,7.72
2023-12-17T00:18:31.525Z,8.60
2023-12-17T00:20:59.397Z,9.10
2023-12-17T00:23:27.689Z,8.20
2023-12-17T00:25:55.856Z,8.30
2023-12-17T00:28:23.746Z,8.82
2023-12-17T00:30:52.118Z,8.90
2023-12-17T00:33:21.462Z,8.80
2023-12-17T00:35:49.285Z,8.65
2023-12-17T00:38:17.042Z,8.02
2023-12-17T00:40:44.818Z,8.40
2023-12-17T00:43:13.154Z,9.15
2023-12-17T00:45:40.822Z,7.40
2023-12-17T00:48:08.575Z,9.05
2023-12-17T00:50:36.475Z,9.13
2023-12-17T00:53:05.058Z,8.35
2023-12-17T00:55:32.965Z,9.27
2023-12-17T00:58:00.600Z,9.07
2023-12-17T01:00:28.675Z,8.90
2023-12-17T01:02:56.638Z,8.80
2023-12-17T01:05:25.009Z,8.13
2023-12-17T01:07:52.664Z,8.77
2023-12-17T01:10:20.401Z,8.50
2023-12-17T01:12:48.133Z,6.18
2023-12-17T01:15:15.916Z,8.30
2023-12-17T01:17:44.347Z,7.88
2023-12-17T01:20:13.109Z,8.15
2023-12-17T01:22:40.977Z,8.40
2023-12-17T01:25:09.400Z,7.15
2023-12-17T01:27:37.290Z,8.00
2023-12-17T01:30:05.338Z,5.28
2023-12-17T01:32:33.348Z,7.95
2023-12-17T01:35:01.147Z,6.88
2023-12-17T01:37:31.280Z,5.63
2023-12-17T01:39:59.329Z,6.50
2023-12-17T01:42:27.612Z,7.20
2023-12-17T01:44:57.052Z,6.57
2023-12-17T01:47:25.324Z,4.68
2023-12-17T01:49:53.278Z,6.80
2023-12-17T01:52:21.135Z,6.07
2023-12-17T01:54:50.414Z,5.72
2023-12-17T01:57:18.526Z,6.28
2023-12-17T01:59:48.368Z,6.65
2023-12-17T02:02:19.089Z,5.97
2023-12-17T02:04:47.000Z,6.75
2023-12-17T02:07:14.863Z,6.00
2023-12-17T02:09:43.720Z,6.63
2023-12-17T02:12:25.284Z,6.88
2023-12-17T02:14:53.530Z,5.68
2023-12-17T02:17:31.742Z,6.53
2023-12-17T02:20:00.119Z,7.25
2023-12-17T02:22:28.804Z,7.18
2023-12-17T02:24:56.596Z,6.40
2023-12-17T02:27:25.515Z,5.28
2023-12-17T02:29:54.208Z,7.60
2023-12-17T02:32:23.558Z,5.40
2023-12-17T02:34:51.984Z,8.52
2023-12-17T02:37:20.076Z,7.53
2023-12-17T02:39:47.861Z,7.53
2023-12-17T02:42:15.968Z,6.47
2023-12-17T02:44:43.840Z,4.50
2023-12-17T02:47:11.638Z,7.50
2023-12-17T02:49:40.466Z,7.38
2023-12-17T02:52:08.332Z,5.65
2023-12-17T02:54:36.812Z,7.10
2023-12-17T02:57:04.687Z,7.13
2023-12-17T02:59:32.424Z,6.32
2023-12-17T03:02:00.138Z,6.95
2023-12-17T03:04:27.837Z,7.35
2023-12-17T03:06:55.542Z,6.60
2023-12-17T03:09:23.467Z,7.25
2023-12-17T03:11:51.499Z,7.18
2023-12-17T03:14:19.439Z,5.05
2023-12-17T03:16:47.263Z,6.30
2023-12-17T03:19:15.096Z,6.03
2023-12-17T03:21:43.183Z,6.88
2023-12-17T03:24:10.919Z,5.90
2023-12-17T03:26:38.766Z,6.45
2023-12-17T03:29:06.518Z,2.85
2023-12-17T03:31:34.404Z,5.90
2023-12-17T03:34:03.258Z,5.93
2023-12-17T03:36:31.346Z,7.15
2023-12-17T03:38:59.210Z,7.22
2023-12-17T03:41:28.228Z,7.05
2023-12-17T03:43:57.838Z,7.00
2023-12-17T03:46:26.439Z,7.00
2023-12-17T03:48:54.428Z,6.25
2023-12-17T03:51:22.435Z,6.78
2023-12-17T03:53:50.262Z,5.32
2023-12-17T03:56:19.609Z,6.40
2023-12-17T03:58:47.364Z,6.15
2023-12-17T04:01:15.384Z,7.05
2023-12-17T04:03:43.231Z,7.22
2023-12-17T04:06:11.195Z,6.63
2023-12-17T04:08:38.853Z,5.00
2023-12-17T04:11:06.683Z,3.13
2023-12-17T04:13:34.421Z,6.25
2023-12-17T04:16:02.145Z,6.65
2023-12-17T04:18:29.890Z,6.15
2023-12-17T04:20:57.790Z,5.13
2023-12-17T04:23:25.505Z,6.07
2023-12-17T04:25:53.185Z,6.13
2023-12-17T04:28:20.852Z,5.97
2023-12-17T04:30:49.178Z,4.53
2023-12-17T04:33:17.439Z,4.40
2023-12-17T04:35:45.629Z,2.67
2023-12-17T04:38:15.032Z,5.25
2023-12-17T04:40:46.550Z,5.65
2023-12-17T04:43:14.358Z,5.65
2023-12-17T04:45:42.068Z,6.25
2023-12-17T04:48:09.831Z,4.95
2023-12-17T04:50:38.139Z,5.95
2023-12-17T04:53:05.838Z,5.60
2023-12-17T04:55:34.973Z,4.93
2023-12-17T04:58:05.189Z,6.30
2023-12-17T05:00:33.503Z,5.45
2023-12-17T05:03:10.239Z,5.30
2023-12-17T05:05:38.380Z,5.63
2023-12-17T05:08:06.156Z,4.80
2023-12-17T05:10:34.208Z,4.60
2023-12-17T05:13:02.221Z,5.78
2023-12-17T05:15:30.009Z,5.70
2023-12-17T05:17:58.051Z,4.82
2023-12-17T05:20:26.019Z,6.18
2023-12-17T05:22:53.713Z,5.45
2023-12-17T05:25:21.547Z,5.70
2023-12-17T05:27:49.423Z,6.43
2023-12-17T05:30:17.326Z,6.15
2023-12-17T05:32:45.185Z,5.10
2023-12-17T05:35:12.868Z,4.38
2023-12-17T05:37:41.314Z,6.75
2023-12-17T05:40:09.561Z,6.45
2023-12-17T05:42:38.139Z,5.25
2023-12-17T05:45:06.220Z,7.18
2023-12-17T05:47:34.547Z,6.38
2023-12-17T05:50:05.364Z,4.68
2023-12-17T05:52:33.336Z,4.30
2023-12-17T05:55:01.026Z,5.65
2023-12-17T05:57:28.992Z,4.97
2023-12-17T05:59:56.823Z,3.67
2023-12-17T06:02:25.257Z,3.67
2023-12-17T06:04:53.183Z,4.97
2023-12-17T06:07:20.886Z,4.78
2023-12-17T06:09:48.775Z,5.68
2023-12-17T06:12:16.644Z,5.03
2023-12-17T06:14:44.320Z,4.78
2023-12-17T06:17:12.969Z,4.65
2023-12-17T06:19:41.632Z,5.70
2023-12-17T06:22:14.056Z,6.00
2023-12-17T06:24:41.733Z,4.78
2023-12-17T06:27:17.068Z,5.05
2023-12-17T06:29:45.074Z,4.03
2023-12-17T06:32:13.635Z,5.32
2023-12-17T06:34:43.743Z,4.85
2023-12-17T06:37:14.613Z,5.18
2023-12-17T06:39:44.071Z,3.75
2023-12-17T06:42:11.967Z,4.30
2023-12-17T06:44:39.875Z,4.97
2023-12-17T06:47:17.801Z,5.03
2023-12-17T06:49:50.714Z,5.38
2023-12-17T06:52:18.637Z,4.25
2023-12-17T06:54:46.362Z,4.63
2023-12-17T06:57:14.104Z,3.83
2023-12-17T06:59:41.931Z,5.97
2023-12-17T07:02:10.162Z,5.03
2023-12-17T07:04:37.930Z,5.10
2023-12-17T07:07:05.773Z,4.85
2023-12-17T07:09:33.513Z,6.18
2023-12-17T07:12:01.840Z,4.65
2023-12-17T07:14:29.561Z,3.28
2023-12-17T07:16:59.709Z,4.70
2023-12-17T07:19:27.864Z,3.92
2023-12-17T07:21:55.629Z,4.00
2023-12-17T07:24:23.358Z,2.88
2023-12-17T07:26:52.886Z,3.97
2023-12-17T07:29:20.696Z,4.00
2023-12-17T07:31:48.583Z,3.75
2023-12-17T07:34:20.128Z,3.20
2023-12-17T07:36:49.189Z,2.85
2023-12-17T07:39:17.039Z,3.38
2023-12-17T07:41:46.038Z,3.20
2023-12-17T07:44:14.864Z,3.25
2023-12-17T07:46:43.204Z,4.22
2023-12-17T07:49:11.033Z,2.72
2023-12-17T07:51:42.503Z,2.70
2023-12-17T07:54:10.335Z,3.15
2023-12-17T07:56:38.167Z,3.20
2023-12-17T07:59:06.441Z,2.15
2023-12-17T08:01:35.560Z,2.75
2023-12-17T08:04:03.934Z,3.67
2023-12-17T08:06:33.733Z,2.58
2023-12-17T08:09:04.773Z,3.33
2023-12-17T08:11:33.679Z,2.95
2023-12-17T08:14:01.577Z,3.33
2023-12-17T08:16:29.440Z,3.42
2023-12-17T08:18:57.509Z,4.10
2023-12-17T08:21:25.475Z,2.60
2023-12-17T08:23:53.337Z,2.35
2023-12-17T08:26:21.031Z,3.67
2023-12-17T08:28:49.294Z,2.95
2023-12-17T08:31:17.040Z,3.60
2023-12-17T08:33:46.510Z,4.30
2023-12-17T08:36:14.406Z,3.72
2023-12-17T08:38:47.200Z,3.72
2023-12-17T08:43:42.726Z,3.65
2023-12-17T08:46:10.693Z,2.97
2023-12-17T08:48:38.761Z,3.10
2023-12-17T08:51:07.382Z,2.55
2023-12-17T08:53:35.331Z,3.72
2023-12-17T08:56:03.526Z,2.85
2023-12-17T08:58:31.222Z,2.72
2023-12-17T09:00:59.184Z,2.47
2023-12-17T09:03:27.163Z,2.53
2023-12-17T09:05:54.927Z,2.30
2023-12-17T09:08:23.556Z,2.35
2023-12-17T09:10:52.047Z,2.58
2023-12-17T09:13:19.815Z,2.40
2023-12-17T09:15:47.595Z,2.88
2023-12-17T09:18:15.506Z,1.70
2023-12-17T09:20:43.399Z,2.85
2023-12-17T09:23:11.209Z,2.60
2023-12-17T09:25:39.032Z,2.00
2023-12-17T09:28:06.695Z,2.40
2023-12-17T09:30:35.013Z,2.60
2023-12-17T09:33:04.263Z,2.10
2023-12-17T09:35:32.793Z,2.53
2023-12-17T09:38:00.549Z,2.40
2023-12-17T09:40:28.314Z,2.75
2023-12-17T09:42:56.842Z,2.88
2023-12-17T09:45:24.716Z,2.03
2023-12-17T09:47:52.643Z,2.17
2023-12-17T09:50:20.663Z,2.40
2023-12-17T09:52:49.474Z,2.30
2023-12-17T09:55:17.689Z,2.42
2023-12-17T09:57:46.839Z,2.92
2023-12-17T10:00:15.604Z,2.75
2023-12-17T10:02:43.890Z,2.40
2023-12-17T10:05:11.801Z,2.30
2023-12-17T10:07:40.767Z,1.80
2023-12-17T10:10:09.345Z,1.90
2023-12-17T10:12:37.421Z,2.28
2023-12-17T10:15:06.604Z,2.28
2023-12-17T10:17:34.653Z,2.30
2023-12-17T10:20:03.206Z,2.08
2023-12-17T10:22:32.962Z,2.20
2023-12-17T10:25:00.701Z,2.15
2023-12-17T10:27:28.875Z,3.78
2023-12-17T10:29:56.762Z,2.17
2023-12-17T10:32:26.090Z,2.40
2023-12-17T10:34:54.890Z,1.95
2023-12-17T10:37:26.847Z,2.30
2023-12-17T10:39:56.228Z,1.90
2023-12-17T10:42:25.104Z,2.10
2023-12-17T10:44:54.459Z,2.08
2023-12-17T10:47:26.714Z,1.40
2023-12-17T10:49:55.285Z,1.92
2023-12-17T10:52:23.934Z,2.20
2023-12-17T10:54:52.073Z,3.13
2023-12-17T10:57:22.362Z,2.45
2023-12-17T10:59:52.114Z,1.98
2023-12-17T11:02:21.170Z,1.48
2023-12-17T11:04:49.487Z,2.17
2023-12-17T11:07:27.432Z,2.47
2023-12-17T11:10:03.708Z,2.00
2023-12-17T11:12:34.233Z,1.92
2023-12-17T11:15:02.245Z,2.03
2023-12-17T11:17:33.230Z,1.55
2023-12-17T11:20:05.223Z,1.25
2023-12-17T11:25:02.719Z,1.70
2023-12-17T11:27:35.771Z,1.38
2023-12-17T11:30:04.882Z,1.25
2023-12-17T11:32:33.915Z,1.70
2023-12-17T11:35:02.893Z,1.88
2023-12-17T11:37:35.894Z,1.58
2023-12-17T11:40:04.745Z,1.50
2023-12-17T11:42:35.215Z,1.30
2023-12-17T11:45:03.596Z,1.50
2023-12-17T11:47:33.744Z,1.60
2023-12-17T11:50:02.449Z,1.50
2023-12-17T11:52:34.325Z,1.52
2023-12-17T11:55:03.140Z,1.40
2023-12-17T11:57:34.928Z,1.52
2023-12-17T12:00:03.563Z,1.50
2023-12-17T12:02:34.812Z,1.98
2023-12-17T12:05:02.910Z,1.27
2023-12-17T12:07:31.847Z,1.50
2023-12-17T12:10:07.545Z,1.30
2023-12-17T12:12:35.620Z,1.52
2023-12-17T12:15:04.471Z,1.42
2023-12-17T12:17:44.363Z,1.23
2023-12-17T12:20:14.748Z,1.27
2023-12-17T12:22:47.107Z,1.38
2023-12-17T12:25:21.714Z,1.50
2023-12-17T12:27:49.736Z,1.23
2023-12-17T12:30:33.961Z,1.17
2023-12-17T12:33:12.539Z,1.40
2023-12-17T12:35:45.004Z,1.10
2023-12-17T12:38:23.313Z,1.17
2023-12-17T12:40:52.129Z,1.10
2023-12-17T12:43:22.533Z,0.98
2023-12-17T12:45:54.301Z,1.10
2023-12-17T12:48:24.196Z,1.00
2023-12-17T12:50:53.491Z,1.55
2023-12-17T12:53:26.528Z,2.75
2023-12-17T12:55:55.582Z,1.30
2023-12-17T12:58:23.882Z,1.20
2023-12-17T13:00:52.288Z,1.67
2023-12-17T13:03:21.124Z,0.90
2023-12-17T13:05:49.894Z,1.20
2023-12-17T13:08:21.698Z,1.10
2023-12-17T13:10:49.916Z,1.10
2023-12-17T13:13:17.678Z,1.08
2023-12-17T13:15:45.433Z,1.05
2023-12-17T13:18:13.801Z,1.35
2023-12-17T13:20:42.611Z,1.25
2023-12-17T13:23:10.606Z,0.90
2023-12-17T13:25:38.602Z,1.75
2023-12-17T13:28:06.943Z,0.90
2023-12-17T13:30:35.996Z,1.10
2023-12-17T13:33:05.917Z,1.00
2023-12-17T13:35:33.908Z,1.13
2023-12-17T13:38:02.019Z,1.38
2023-12-17T13:40:31.022Z,1.10
2023-12-17T13:42:58.758Z,1.13
2023-12-17T13:45:26.716Z,0.88
2023-12-17T13:47:54.594Z,1.08
2023-12-17T13:50:22.526Z,1.23
2023-12-17T13:52:50.330Z,0.90
2023-12-17T13:55:18.088Z,0.80
2023-12-17T13:57:46.064Z,0.80
2023-12-17T14:00:16.205Z,0.93
2023-12-17T14:02:45.674Z,1.02
2023-12-17T14:05:14.683Z,0.90
2023-12-17T14:07:42.877Z,1.00
2023-12-17T14:10:11.854Z,0.95
2023-12-17T14:12:41.277Z,1.05
2023-12-17T14:15:10.877Z,1.10
2023-12-17T14:17:38.673Z,1.00
2023-12-17T14:20:11.234Z,1.33
2023-12-17T14:22:42.660Z,1.17
2023-12-17T14:25:11.272Z,1.05
2023-12-17T14:27:44.381Z,1.60
2023-12-17T14:30:17.879Z,1.00
2023-12-17T14:32:46.095Z,2.40
2023-12-17T14:35:14.068Z,1.20
2023-12-17T14:37:41.751Z,1.10
2023-12-17T14:40:09.863Z,1.10
2023-12-17T14:42:38.260Z,1.30
2023-12-17T14:45:07.134Z,1.30
2023-12-17T14:47:35.026Z,1.33
2023-12-17T14:50:02.910Z,1.17
2023-12-17T14:52:32.171Z,1.20
2023-12-17T14:55:02.367Z,1.40
2023-12-17T14:57:32.900Z,1.17
2023-12-17T15:00:00.743Z,1.10
2023-12-17T15:02:29.400Z,1.27
2023-12-17T15:04:57.485Z,1.02
2023-12-17T15:07:25.186Z,1.60
2023-12-17T15:10:04.278Z,1.15
2023-12-17T15:12:32.424Z,1.80
2023-12-17T15:15:00.499Z,1.48
2023-12-17T15:17:28.351Z,1.48
2023-12-17T15:19:56.789Z,1.50
2023-12-17T15:22:24.642Z,1.77
2023-12-17T15:24:52.897Z,1.38
2023-12-17T15:27:29.659Z,1.25
2023-12-17T15:29:57.979Z,1.15
2023-12-17T15:32:26.649Z,1.00
2023-12-17T15:34:55.764Z,1.10
2023-12-17T15:37:23.571Z,1.40
2023-12-17T15:39:51.337Z,1.08
2023-12-17T15:42:19.365Z,1.30
2023-12-17T15:44:47.162Z,1.17
2023-12-17T15:47:14.900Z,1.40
2023-12-17T15:49:43.708Z,1.38
2023-12-17T15:52:11.906Z,1.40
2023-12-17T15:54:39.624Z,1.40
2023-12-17T15:57:07.437Z,1.50
2023-12-17T15:59:36.406Z,1.13
2023-12-17T16:02:04.585Z,1.20
2023-12-17T16:04:32.368Z,1.10
2023-12-17T16:07:00.196Z,1.33
2023-12-17T16:09:28.040Z,1.20
2023-12-17T16:11:55.891Z,1.23
2023-12-17T16:14:23.746Z,1.38
2023-12-17T16:16:51.661Z,1.55
2023-12-17T16:19:19.524Z,1.33
2023-12-17T16:21:49.000Z,1.40
2023-12-17T16:24:17.369Z,0.98
2023-12-17T16:26:45.165Z,1.65
2023-12-17T16:29:13.400Z,1.10
2023-12-17T16:31:41.740Z,1.65
2023-12-17T16:34:10.067Z,1.27
2023-12-17T16:36:44.202Z,1.10
2023-12-17T16:39:12.149Z,1.00
2023-12-17T16:41:40.073Z,1.30
2023-12-17T16:44:08.424Z,1.20
2023-12-17T16:46:36.278Z,1.30
2023-12-17T16:49:04.181Z,1.10
2023-12-17T16:51:32.302Z,1.27
2023-12-17T16:54:00.614Z,0.90
2023-12-17T16:56:29.078Z,1.40
2023-12-17T16:58:57.969Z,1.02
2023-12-17T17:01:25.935Z,1.13
2023-12-17T17:03:53.934Z,1.17
2023-12-17T17:06:21.712Z,1.25
2023-12-17T17:08:49.627Z,1.10
2023-12-17T17:11:17.533Z,3.25
2023-12-17T17:13:45.482Z,1.10
2023-12-17T17:16:13.171Z,1.00
2023-12-17T17:18:41.036Z,1.30
2023-12-17T17:21:10.245Z,1.65
2023-12-17T17:23:38.398Z,1.90
2023-12-17T17:26:07.111Z,1.05
2023-12-17T17:28:36.409Z,1.20
2023-12-17T17:31:05.304Z,1.02
2023-12-17T17:33:35.608Z,1.25
2023-12-17T17:36:03.482Z,1.20
2023-12-17T17:38:31.827Z,1.02
2023-12-17T17:40:59.942Z,1.35
2023-12-17T17:43:27.744Z,1.40
2023-12-17T17:45:55.451Z,1.00
2023-12-17T17:48:23.263Z,1.05
2023-12-17T17:50:51.713Z,1.25
2023-12-17T17:53:19.605Z,1.30
2023-12-17T17:55:47.400Z,1.27
2023-12-17T17:58:15.258Z,2.10
2023-12-17T18:00:43.449Z,1.60
2023-12-17T18:03:12.163Z,1.50
2023-12-17T18:05:41.199Z,2.28
2023-12-17T18:08:08.907Z,2.00
2023-12-17T18:10:36.966Z,1.75
2023-12-17T18:13:04.706Z,1.50
2023-12-17T18:15:32.481Z,2.00
2023-12-17T18:18:02.229Z,2.45
2023-12-17T18:20:30.753Z,2.85
2023-12-17T18:22:58.610Z,2.53
2023-12-17T18:25:26.901Z,2.13
2023-12-17T18:27:54.849Z,5.70
2023-12-17T18:30:24.008Z,5.53
2023-12-17T18:32:52.087Z,4.00
2023-12-17T18:35:19.809Z,3.05
2023-12-17T18:37:48.184Z,4.95
2023-12-17T18:40:15.992Z,4.00
2023-12-17T18:42:44.023Z,4.90
2023-12-17T18:45:12.085Z,3.40
2023-12-17T18:47:39.963Z,1.88
2023-12-17T18:50:08.269Z,1.70
2023-12-17T18:52:36.136Z,1.25
2023-12-17T18:55:05.036Z,1.30
2023-12-17T18:57:34.887Z,1.35
2023-12-17T19:00:02.938Z,1.40
2023-12-17T19:02:35.741Z,1.40
2023-12-17T19:05:03.747Z,1.30
2023-12-17T19:07:32.617Z,1.50
2023-12-17T19:10:01.077Z,1.40
2023-12-17T19:12:28.985Z,1.33
2023-12-17T19:14:56.780Z,1.40
2023-12-17T19:17:26.235Z,1.73
2023-12-17T19:19:55.136Z,1.40
2023-12-17T19:22:27.571Z,1.45
2023-12-17T19:24:58.762Z,1.20
2023-12-17T19:27:26.452Z,1.33
2023-12-17T19:29:56.952Z,1.20
2023-12-17T19:32:24.712Z,1.30
2023-12-17T19:34:52.435Z,1.08
2023-12-17T19:37:20.892Z,1.20
2023-12-17T19:39:49.458Z,0.93
2023-12-17T19:42:17.152Z,1.45
2023-12-17T19:44:44.837Z,1.20
2023-12-17T19:47:12.812Z,1.20
2023-12-17T19:49:40.512Z,1.48
2023-12-17T19:52:08.318Z,1.10
2023-12-17T19:54:40.026Z,1.10
2023-12-17T19:57:09.565Z,1.52
2023-12-17T19:59:37.401Z,1.30
2023-12-17T20:02:08.098Z,1.23
2023-12-17T20:04:36.166Z,1.20
2023-12-17T20:07:04.005Z,1.20
2023-12-17T20:09:32.009Z,1.25
2023-12-17T20:12:00.398Z,1.15
2023-12-17T20:14:28.187Z,1.20
2023-12-17T20:16:56.455Z,1.10
2023-12-17T20:19:24.255Z,0.98
2023-12-17T20:21:52.019Z,1.15
2023-12-17T20:24:20.275Z,2.50
2023-12-17T20:26:47.999Z,1.20
2023-12-17T20:29:16.018Z,1.55
2023-12-17T20:31:43.947Z,1.27
2023-12-17T20:34:13.599Z,1.08
2023-12-17T20:36:43.161Z,1.13
2023-12-17T20:39:11.635Z,1.40
2023-12-17T20:41:39.897Z,1.25
2023-12-17T20:44:08.769Z,1.15
2023-12-17T20:46:36.730Z,1.00
2023-12-17T20:49:04.631Z,1.25
2023-12-17T20:51:32.883Z,1.05
2023-12-17T20:54:00.907Z,1.30
2023-12-17T20:56:28.725Z,2.50
2023-12-17T20:58:59.420Z,0.93
2023-12-17T21:01:27.767Z,1.10
2023-12-17T21:03:55.527Z,1.05
2023-12-17T21:06:23.788Z,1.58
2023-12-17T21:08:51.742Z,1.40
2023-12-17T21:11:19.724Z,1.27
2023-12-17T21:13:47.787Z,1.48
2023-12-17T21:16:15.451Z,1.67
2023-12-17T21:18:43.437Z,1.42
2023-12-17T21:21:11.563Z,1.27
2023-12-17T21:23:39.805Z,1.45
2023-12-17T21:26:07.893Z,1.10
2023-12-17T21:28:35.721Z,1.50
2023-12-17T21:31:03.530Z,1.30
2023-12-17T21:33:31.390Z,1.10
2023-12-17T21:35:59.411Z,1.02
2023-12-17T21:38:27.078Z,1.10
2023-12-17T21:40:54.854Z,1.40
2023-12-17T21:43:22.589Z,1.20
2023-12-17T21:45:50.930Z,1.42
2023-12-17T21:48:18.725Z,1.15
2023-12-17T21:50:46.701Z,1.00
2023-12-17T21:53:14.479Z,1.20
2023-12-17T21:55:42.097Z,1.20
2023-12-17T21:58:10.843Z,1.10
2023-12-17T22:00:38.819Z,1.10
2023-12-17T22:03:07.104Z,1.20
2023-12-17T22:05:37.179Z,1.20
2023-12-17T22:08:05.109Z,1.00
2023-12-17T22:10:32.871Z,0.90
2023-12-17T22:13:00.740Z,1.38
2023-12-17T22:15:29.062Z,1.20
2023-12-17T22:17:57.752Z,1.10
2023-12-17T22:20:25.678Z,1.40
2023-12-17T22:22:53.572Z,1.30
2023-12-17T22:25:22.147Z,1.30
2023-12-17T22:27:49.869Z,1.40
2023-12-17T22:30:17.813Z,1.40
2023-12-17T22:32:45.607Z,1.20
2023-12-17T22:35:13.368Z,1.30
2023-12-17T22:37:41.437Z,1.33
2023-12-17T22:40:09.812Z,1.67
2023-12-17T22:42:38.622Z,0.88
2023-12-17T22:45:09.121Z,1.70
2023-12-17T22:47:37.671Z,1.30
2023-12-17T22:50:05.894Z,1.23
2023-12-17T22:52:34.637Z,1.30
2023-12-17T22:55:02.881Z,1.35
2023-12-17T22:57:32.771Z,1.25
2023-12-17T23:00:00.747Z,1.23
2023-12-17T23:02:29.829Z,1.17
2023-12-17T23:04:58.020Z,1.05
2023-12-17T23:07:27.050Z,1.33
2023-12-17T23:09:54.885Z,1.10
2023-12-17T23:12:22.619Z,1.50
2023-12-17T23:14:50.338Z,1.20
2023-12-17T23:17:18.135Z,1.27
2023-12-17T23:19:45.986Z,1.48
2023-12-17T23:22:13.746Z,1.38
2023-12-17T23:24:41.632Z,1.10
2023-12-17T23:27:09.365Z,1.38
2023-12-17T23:29:37.004Z,1.42
2023-12-17T23:32:04.809Z,1.75
2023-12-17T23:34:32.646Z,1.30
2023-12-17T23:37:00.386Z,1.45
2023-12-17T23:39:28.125Z,1.80
2023-12-17T23:41:55.832Z,1.30
2023-12-17T23:44:23.740Z,1.50
2023-12-17T23:46:51.421Z,1.70
2023-12-17T23:49:19.277Z,1.52
2023-12-17T23:51:47.168Z,1.05
2023-12-17T23:54:15.921Z,1.33
2023-12-17T23:56:46.728Z,1.00
2023-12-17T23:59:14.445Z,1.60
